Time;durP1;ratioP1;P1;durP2;ratioP2;P2;SDS_P1;SDS_P2;PMS_P1;PMS_P2;Temp;Humidity;BMP_temperature;BMP_pressure;BME280_temperature;BME280_humidity;BME280_pressure;Samples;Min_cycle;Max_cycle;Signal;HPM_P1;HPM_P2
2022/08/21 00:00:28;;;;;;;6.20;3.95;;;;;;;19.59;50.46;101579.31;5094259;28;20040;-72
2022/08/21 00:02:58;;;;;;;5.68;3.70;;;;;;;19.53;50.44;101574.47;5094305;28;20114;-72
2022/08/21 00:05:26;;;;;;;6.07;4.18;;;;;;;19.51;50.65;101583.75;5093409;28;20052;-72
2022/08/21 00:07:53;;;;;;;5.03;3.83;;;;;;;19.47;50.83;101579.63;5092946;28;20520;-74
2022/08/21 00:10:20;;;;;;;8.30;4.03;;;;;;;19.42;50.96;101579.22;5094374;28;20036;-73
2022/08/21 00:12:48;;;;;;;6.57;4.30;;;;;;;19.39;51.00;101580.38;5093312;28;20390;-74
2022/08/21 00:15:19;;;;;;;5.93;4.03;;;;;;;19.38;51.13;101583.25;5094288;28;20048;-73
2022/08/21 00:17:46;;;;;;;7.05;4.30;;;;;;;19.33;50.96;101573.66;5092948;28;20056;-73
2022/08/21 00:20:15;;;;;;;5.47;4.30;;;;;;;19.29;51.11;101580.38;5094208;28;20475;-74
2022/08/21 00:22:42;;;;;;;4.85;3.97;;;;;;;19.25;51.09;101578.09;5094000;28;20044;-74
2022/08/21 00:25:09;;;;;;;4.75;4.07;;;;;;;19.24;51.35;101576.38;5092884;28;20141;-75
2022/08/21 00:27:36;;;;;;;8.70;4.13;;;;;;;19.19;51.11;101562.34;5093451;28;20044;-75
2022/08/21 00:30:06;;;;;;;4.50;3.65;;;;;;;19.14;51.30;101570.94;5094049;28;20040;-75
2022/08/21 00:32:33;;;;;;;5.22;4.13;;;;;;;19.10;51.28;101569.53;5093704;28;20044;-76
2022/08/21 00:35:00;;;;;;;5.18;4.20;;;;;;;19.05;51.68;101567.25;5093577;28;20074;-75
2022/08/21 00:37:27;;;;;;;5.63;3.95;;;;;;;19.04;51.60;101565.53;5093427;28;20548;-75
2022/08/21 00:39:56;;;;;;;4.93;4.40;;;;;;;19.02;51.84;101567.53;5093790;28;20040;-76
2022/08/21 00:42:22;;;;;;;6.43;4.63;;;;;;;18.98;51.71;101565.25;5091930;28;20410;-75
2022/08/21 00:44:50;;;;;;;8.15;4.70;;;;;;;18.96;51.79;101562.66;5093930;28;20036;-76
2022/08/21 00:47:18;;;;;;;9.90;4.68;;;;;;;18.93;52.11;101568.41;5092168;28;20418;-76
2022/08/21 00:49:45;;;;;;;7.63;4.22;;;;;;;18.92;52.01;101561.25;5094052;28;20028;-75
2022/08/21 00:52:21;;;;;;;5.85;3.90;;;;;;;18.92;52.01;101563.97;5092211;28;20036;-75
2022/08/21 00:54:50;;;;;;;5.13;4.13;;;;;;;18.89;51.86;101556.09;5093248;28;20110;-74
2022/08/21 00:57:25;;;;;;;6.70;4.43;;;;;;;18.87;51.78;101559.97;5093754;28;20032;-75
2022/08/21 00:59:57;;;;;;;6.57;4.53;;;;;;;18.88;51.96;101557.09;5092236;28;20075;-75
2022/08/21 01:02:24;;;;;;;7.95;4.53;;;;;;;18.89;52.42;101564.25;5092028;28;20498;-74
2022/08/21 01:04:51;;;;;;;8.65;4.78;;;;;;;18.92;52.20;101554.94;5093565;28;20540;-74
2022/08/21 01:07:19;;;;;;;7.97;5.05;;;;;;;18.94;52.18;101566.53;5093390;28;20051;-75
2022/08/21 01:09:48;;;;;;;8.00;4.72;;;;;;;18.96;52.25;101564.53;5092730;27;20588;-75
2022/08/21 01:12:15;;;;;;;8.52;5.05;;;;;;;18.96;52.18;101559.09;5093015;28;20413;-75
2022/08/21 01:14:42;;;;;;;6.50;5.20;;;;;;;18.94;52.22;101564.69;5093293;27;20074;-73
2022/08/21 01:17:12;;;;;;;9.77;5.53;;;;;;;18.92;52.30;101565.84;5092675;28;20043;-74
2022/08/21 01:19:39;;;;;;;9.57;4.88;;;;;;;18.87;52.06;101560.81;5093273;28;20051;-74
2022/08/21 01:22:06;;;;;;;7.43;4.68;;;;;;;18.84;52.05;101560.25;5092578;28;20048;-73
2022/08/21 01:24:34;;;;;;;9.07;4.82;;;;;;;18.79;52.15;101570.72;5091874;28;20051;-73
2022/08/21 01:27:02;;;;;;;7.13;4.57;;;;;;;18.78;52.55;101569.84;5092654;28;20083;-73
2022/08/21 01:29:33;;;;;;;6.45;4.70;;;;;;;18.81;52.45;101566.84;5092936;28;20040;-74
2022/08/21 01:32:05;;;;;;;7.60;4.95;;;;;;;18.84;52.22;101562.97;5091443;28;20032;-74
2022/08/21 01:34:38;;;;;;;6.57;5.03;;;;;;;18.85;52.15;101561.97;5091672;28;20044;-74
2022/08/21 01:37:05;;;;;;;6.03;4.93;;;;;;;18.81;52.55;101563.28;5091117;28;20135;-74
2022/08/21 01:39:32;;;;;;;6.20;4.80;;;;;;;18.78;52.37;101563.56;5092720;28;20039;-74
2022/08/21 01:41:58;;;;;;;5.70;4.07;;;;;;;18.73;52.40;101555.84;5092486;28;20410;-74
2022/08/21 01:44:26;;;;;;;4.70;4.22;;;;;;;18.68;52.48;101558.13;5092302;28;20494;-73
2022/08/21 01:46:53;;;;;;;4.85;3.97;;;;;;;18.64;52.35;101562.13;5092815;28;20036;-73
2022/08/21 01:49:20;;;;;;;6.07;4.80;;;;;;;18.62;52.50;101555.97;5091553;28;20075;-74
2022/08/21 01:51:47;;;;;;;7.07;5.00;;;;;;;18.61;52.30;101556.94;5092405;28;20044;-73
2022/08/21 01:54:14;;;;;;;6.55;4.55;;;;;;;18.63;52.43;101560.41;5092854;28;20040;-73
2022/08/21 01:56:48;;;;;;;10.07;5.35;;;;;;;18.64;52.71;101560.28;5092109;28;20040;-74
2022/08/21 01:59:15;;;;;;;8.75;5.55;;;;;;;18.65;52.82;101561.13;5092143;28;20060;-73
2022/08/21 02:01:41;;;;;;;7.45;5.75;;;;;;;18.64;52.85;101557.56;5092221;28;20050;-74
2022/08/21 02:04:10;;;;;;;10.80;5.82;;;;;;;18.66;52.65;101560.13;5092128;28;20561;-73
2022/08/21 02:06:37;;;;;;;8.27;5.40;;;;;;;18.67;52.49;101559.13;5091986;28;20059;-73
2022/08/21 02:09:06;;;;;;;9.80;6.05;;;;;;;18.70;52.60;101556.13;5092118;28;20127;-74
2022/08/21 02:11:33;;;;;;;8.48;6.18;;;;;;;18.69;52.80;101551.69;5091423;28;20391;-73
2022/08/21 02:14:04;;;;;;;9.52;5.50;;;;;;;18.64;52.52;101554.84;5092190;28;20047;-73
2022/08/21 02:16:31;;;;;;;10.00;5.78;;;;;;;18.60;52.49;101550.66;5091752;28;20036;-73
2022/08/21 02:18:58;;;;;;;9.63;4.90;;;;;;;18.59;52.95;101550.78;5091851;28;20465;-73
2022/08/21 02:21:25;;;;;;;9.00;5.40;;;;;;;18.59;52.91;101548.06;5091981;28;20063;-73
2022/08/21 02:23:57;;;;;;;10.13;6.75;;;;;;;18.59;52.74;101540.78;5073089;28;20401;-74
2022/08/21 02:26:24;;;;;;;7.78;6.30;;;;;;;18.56;52.60;101535.59;5091924;28;20040;-75
2022/08/21 02:28:50;;;;;;;8.55;6.00;;;;;;;18.51;53.05;101543.31;5091554;27;20055;-74
2022/08/21 02:31:17;;;;;;;9.27;5.63;;;;;;;18.45;52.94;101537.59;5091785;28;20044;-74
2022/08/21 02:33:44;;;;;;;6.15;5.13;;;;;;;18.39;53.00;101534.44;5091874;27;20375;-74
2022/08/21 02:36:11;;;;;;;7.85;5.70;;;;;;;18.38;52.67;101535.44;5091756;28;20040;-74
2022/08/21 02:38:40;;;;;;;8.15;5.53;;;;;;;18.40;52.83;101535.31;5090891;28;20044;-73
2022/08/21 02:41:12;;;;;;;8.40;5.85;;;;;;;18.42;53.07;101538.75;5091792;28;20052;-74
2022/08/21 02:43:40;;;;;;;9.07;6.10;;;;;;;18.43;53.24;101537.75;5091643;28;20047;-74
2022/08/21 02:46:08;;;;;;;9.15;6.13;;;;;;;18.42;53.01;101531.44;5090064;28;20046;-72
2022/08/21 02:48:35;;;;;;;8.52;6.88;;;;;;;18.40;53.07;101528.00;5091549;28;20036;-72
2022/08/21 02:51:10;;;;;;;7.88;6.25;;;;;;;18.36;53.22;101526.56;5091002;28;20040;-72
2022/08/21 02:53:40;;;;;;;10.60;6.38;;;;;;;18.33;53.17;101521.41;5091407;28;20421;-72
2022/08/21 02:56:10;;;;;;;9.27;6.15;;;;;;;18.36;53.12;101526.56;5091469;28;20036;-72
2022/08/21 02:58:41;;;;;;;9.98;6.05;;;;;;;18.38;53.42;101521.84;5091237;28;20051;-72
2022/08/21 03:01:09;;;;;;;8.70;6.40;;;;;;;18.43;53.48;101521.41;5091364;28;20036;-71
2022/08/21 03:03:43;;;;;;;7.72;6.35;;;;;;;18.46;53.31;101517.56;5090641;28;20039;-71
2022/08/21 03:06:12;;;;;;;9.40;6.75;;;;;;;18.47;53.37;101511.97;5091349;28;20043;-71
2022/08/21 03:08:39;;;;;;;9.65;6.75;;;;;;;18.45;53.24;101519.41;5091110;28;20056;-70
2022/08/21 03:11:07;;;;;;;9.15;6.85;;;;;;;18.42;53.15;101519.69;5091179;27;20058;-70
2022/08/21 03:13:39;;;;;;;7.57;6.68;;;;;;;18.42;53.50;101515.13;5091420;28;20060;-70
2022/08/21 03:16:07;;;;;;;9.80;6.60;;;;;;;18.42;53.22;101506.97;5090966;27;20123;-72
2022/08/21 03:18:36;;;;;;;9.15;6.95;;;;;;;18.42;53.47;101512.41;5090620;28;20309;-72
2022/08/21 03:21:03;;;;;;;9.32;6.85;;;;;;;18.41;53.12;101502.53;5091277;28;20043;-72
2022/08/21 03:23:30;;;;;;;9.32;6.82;;;;;;;18.43;53.38;101505.09;5091533;28;20493;-71
2022/08/21 03:25:58;;;;;;;11.60;7.43;;;;;;;18.43;53.26;101519.56;5090921;28;20043;-72
2022/08/21 03:28:25;;;;;;;10.93;7.88;;;;;;;18.45;53.04;101518.56;5090945;28;20039;-71
2022/08/21 03:30:52;;;;;;;10.07;7.35;;;;;;;18.43;53.28;101511.41;5091078;28;20382;-72
2022/08/21 03:33:24;;;;;;;8.82;7.18;;;;;;;18.43;53.32;101514.13;5090773;28;20039;-72
2022/08/21 03:36:04;;;;;;;11.65;7.40;;;;;;;18.39;52.95;101514.56;5091046;28;20044;-72
2022/08/21 03:38:33;;;;;;;9.75;6.57;;;;;;;18.34;53.01;101511.41;5091159;28;20115;-72
2022/08/21 03:41:00;;;;;;;11.75;7.25;;;;;;;18.28;52.90;101511.97;5090950;28;20060;-73
2022/08/21 03:43:31;;;;;;;8.05;6.25;;;;;;;18.19;52.95;101508.25;5090921;28;20417;-72
2022/08/21 03:46:01;;;;;;;6.97;5.45;;;;;;;18.13;52.94;101514.25;5090271;28;20447;-73
2022/08/21 03:48:27;;;;;;;11.30;5.78;;;;;;;18.07;53.11;101512.09;5090758;28;20075;-72
2022/08/21 03:50:54;;;;;;;8.25;6.47;;;;;;;18.00;53.11;101513.66;5090965;28;20494;-73
2022/08/21 03:53:25;;;;;;;11.23;6.30;;;;;;;17.94;53.08;101511.50;5090548;28;20040;-72
2022/08/21 03:55:52;;;;;;;9.60;6.75;;;;;;;17.91;53.42;101518.09;5090933;28;20535;-73
2022/08/21 03:58:22;;;;;;;12.20;8.95;;;;;;;17.87;53.27;101518.50;5090741;28;20054;-73
2022/08/21 04:00:55;;;;;;;12.05;8.18;;;;;;;17.83;53.40;101514.31;5090425;28;20050;-74
2022/08/21 04:03:26;;;;;;;10.82;8.23;;;;;;;17.79;53.47;101516.47;5089742;28;20123;-74
2022/08/21 04:05:53;;;;;;;10.43;7.90;;;;;;;17.73;53.40;101509.72;5090955;28;20038;-74
2022/08/21 04:08:19;;;;;;;13.00;8.35;;;;;;;17.70;53.95;101514.56;5090706;28;20044;-74
2022/08/21 04:10:49;;;;;;;10.82;8.48;;;;;;;17.66;53.84;101515.81;5090999;28;20556;-73
2022/08/21 04:13:18;;;;;;;13.02;9.73;;;;;;;17.62;53.88;101512.53;5094390;28;20044;-73
2022/08/21 04:15:44;;;;;;;12.30;9.65;;;;;;;17.60;54.13;101505.50;5093529;28;20051;-73
2022/08/21 04:18:11;;;;;;;14.40;10.23;;;;;;;17.55;54.05;101514.06;5094581;28;20453;-73
2022/08/21 04:20:39;;;;;;;13.98;9.15;;;;;;;17.48;54.33;101502.91;5094363;28;20036;-73
2022/08/21 04:23:10;;;;;;;14.50;10.27;;;;;;;17.44;54.55;101504.19;5093904;28;20028;-71
2022/08/21 04:25:36;;;;;;;13.55;9.27;;;;;;;17.42;54.24;101502.59;5093074;28;20047;-71
2022/08/21 04:28:03;;;;;;;11.77;10.10;;;;;;;17.41;54.71;101509.03;5093966;28;20051;-72
2022/08/21 04:30:30;;;;;;;12.63;10.48;;;;;;;17.37;54.94;101504.84;5094269;28;20490;-72
2022/08/21 04:32:58;;;;;;;13.80;10.80;;;;;;;17.32;54.43;101509.84;5094254;28;20051;-74
2022/08/21 04:35:27;;;;;;;16.33;11.45;;;;;;;17.25;54.65;101517.66;5093790;27;20059;-73
2022/08/21 04:37:54;;;;;;;11.80;10.48;;;;;;;17.18;54.70;101513.78;5093835;28;20052;-73
2022/08/21 04:40:24;;;;;;;14.27;9.75;;;;;;;17.14;54.79;101510.47;5093936;28;20032;-74
2022/08/21 04:43:20;;;;;;;12.02;9.75;;;;;;;17.13;55.38;101505.19;5093873;28;20090;-72
2022/08/21 04:45:48;;;;;;;15.27;10.88;;;;;;;17.14;55.32;101512.34;5093623;28;20052;-72
2022/08/21 04:48:18;;;;;;;15.18;11.43;;;;;;;17.16;55.14;101515.78;5093754;28;20359;-73
2022/08/21 04:50:51;;;;;;;14.55;10.57;;;;;;;17.17;55.48;101514.78;5093138;28;20043;-73
2022/08/21 04:53:37;;;;;;;11.43;10.20;;;;;;;17.18;55.38;101518.34;5093620;28;20036;-72
2022/08/21 04:56:08;;;;;;;13.75;10.60;;;;;;;17.19;55.35;101525.50;5092411;28;20048;-72
2022/08/21 04:58:37;;;;;;;15.45;10.43;;;;;;;17.17;55.65;101520.19;5092986;28;20403;-73
2022/08/21 05:01:06;;;;;;;16.58;11.15;;;;;;;17.15;55.73;101531.19;5093592;28;20036;-72
2022/08/21 05:03:36;;;;;;;16.20;10.98;;;;;;;17.17;55.68;101533.78;5092985;27;20040;-73
2022/08/21 05:06:10;;;;;;;17.55;10.00;;;;;;;17.19;55.69;101536.34;5093563;28;20040;-73
2022/08/21 05:08:38;;;;;;;15.13;10.88;;;;;;;17.22;55.68;101545.09;5093291;28;20055;-73
2022/08/21 05:11:05;;;;;;;15.57;11.07;;;;;;;17.27;55.80;101542.81;5093392;28;20044;-73
2022/08/21 05:13:36;;;;;;;14.63;10.30;;;;;;;17.31;55.78;101538.00;5093324;28;20394;-72
2022/08/21 05:16:03;;;;;;;12.98;10.52;;;;;;;17.35;55.89;101534.00;5093166;27;20052;-74
2022/08/21 05:18:30;;;;;;;11.90;9.82;;;;;;;17.36;55.55;101538.44;5092989;28;20054;-73
2022/08/21 05:20:56;;;;;;;11.85;10.10;;;;;;;17.37;55.75;101534.72;5093241;28;20493;-74
2022/08/21 05:23:25;;;;;;;15.20;10.48;;;;;;;17.37;55.82;101537.44;5091955;28;20036;-73
2022/08/21 05:25:53;;;;;;;11.15;9.60;;;;;;;17.36;55.92;101544.72;5092651;28;20067;-75
2022/08/21 05:28:19;;;;;;;12.88;10.90;;;;;;;17.37;55.91;101543.72;5092700;28;20051;-74
2022/08/21 05:30:46;;;;;;;14.38;11.25;;;;;;;17.39;55.94;101551.75;5093023;28;20090;-74
2022/08/21 05:33:14;;;;;;;13.98;11.73;;;;;;;17.40;56.03;101545.31;5092516;28;20036;-74
2022/08/21 05:35:41;;;;;;;16.50;11.05;;;;;;;17.42;56.12;101540.59;5093025;27;20060;-75
2022/08/21 05:38:08;;;;;;;17.40;11.80;;;;;;;17.45;56.10;101546.63;5092594;28;20040;-75
2022/08/21 05:40:44;;;;;;;15.68;12.50;;;;;;;17.49;56.27;101549.94;5092739;28;20040;-74
2022/08/21 05:43:12;;;;;;;13.18;11.23;;;;;;;17.53;56.71;101554.09;5092902;28;20490;-74
2022/08/21 05:45:39;;;;;;;18.02;12.60;;;;;;;17.56;56.49;101559.25;5092669;28;20047;-73
2022/08/21 05:48:20;;;;;;;16.48;11.52;;;;;;;17.60;56.97;101559.84;5090555;28;20040;-73
2022/08/21 05:50:49;;;;;;;12.85;11.55;;;;;;;17.64;57.04;101564.84;5092984;28;20043;-73
2022/08/21 05:53:20;;;;;;;16.40;11.50;;;;;;;17.70;56.88;101564.34;5092689;28;20111;-73
2022/08/21 05:55:48;;;;;;;14.65;12.05;;;;;;;17.75;56.79;101559.34;5092252;28;20063;-74
2022/08/21 05:58:17;;;;;;;15.77;12.52;;;;;;;17.80;56.95;101561.66;5092431;28;20058;-73
2022/08/21 06:00:47;;;;;;;15.10;12.45;;;;;;;17.86;57.26;101561.13;5091512;28;20516;-72
2022/08/21 06:03:24;;;;;;;14.40;11.68;;;;;;;17.92;57.16;101566.00;5092332;28;20429;-72
2022/08/21 06:05:51;;;;;;;16.55;12.10;;;;;;;17.98;57.44;101559.16;5092027;27;20524;-73
2022/08/21 06:08:19;;;;;;;15.50;12.07;;;;;;;18.03;57.85;101556.88;5091302;28;20076;-73
2022/08/21 06:10:48;;;;;;;15.05;12.45;;;;;;;18.12;58.00;101557.91;5089431;28;20047;-73
2022/08/21 06:13:20;;;;;;;14.93;11.68;;;;;;;18.22;57.71;101558.75;5092239;28;20037;-73
2022/08/21 06:15:48;;;;;;;15.75;10.63;;;;;;;18.31;57.73;101561.50;5091894;28;20115;-73
2022/08/21 06:18:15;;;;;;;14.30;9.63;;;;;;;18.41;58.12;101561.50;5091980;28;20399;-73
2022/08/21 06:20:42;;;;;;;12.65;9.23;;;;;;;18.55;58.29;101562.94;5092300;28;20050;-72
2022/08/21 06:23:11;;;;;;;13.25;8.82;;;;;;;18.66;58.23;101561.00;5091945;28;20047;-74
2022/08/21 06:25:37;;;;;;;12.10;9.38;;;;;;;18.83;58.07;101562.13;5090574;28;20044;-73
2022/08/21 06:28:07;;;;;;;12.27;8.90;;;;;;;19.00;58.31;101568.69;5091661;28;20043;-72
2022/08/21 06:30:35;;;;;;;12.60;8.40;;;;;;;19.16;58.13;101559.91;5091381;28;20040;-71
2022/08/21 06:35:34;;;;;;;9.55;6.93;;;;;;;19.48;58.13;101562.28;5089716;28;20505;-72
2022/08/21 06:38:01;;;;;;;12.45;7.03;;;;;;;19.66;57.92;101577.72;5091521;28;20070;-71
2022/08/21 06:40:28;;;;;;;12.55;7.85;;;;;;;19.85;58.08;101567.72;5091439;28;20040;-71
2022/08/21 06:42:57;;;;;;;16.42;7.10;;;;;;;20.01;57.74;101567.91;5091015;28;20536;-72
2022/08/21 06:45:24;;;;;;;12.52;6.90;;;;;;;20.17;57.62;101567.28;5091440;28;20517;-72
2022/08/21 06:47:53;;;;;;;12.80;6.38;;;;;;;20.31;57.86;101567.59;5091837;28;20035;-72
2022/08/21 06:50:20;;;;;;;9.52;6.07;;;;;;;20.43;57.70;101560.06;5091538;28;20048;-72
2022/08/21 06:52:46;;;;;;;9.10;6.32;;;;;;;20.57;57.37;101564.13;5090885;28;20051;-73
2022/08/21 06:55:14;;;;;;;10.00;6.57;;;;;;;20.71;57.18;101562.72;5091833;28;20047;-73
2022/08/21 06:57:49;;;;;;;10.70;6.47;;;;;;;20.84;57.27;101564.06;5090273;28;20056;-73
2022/08/21 07:00:19;;;;;;;10.93;6.03;;;;;;;20.99;57.04;101566.22;5090821;28;20126;-73
2022/08/21 07:02:45;;;;;;;8.20;5.65;;;;;;;21.14;56.96;101568.19;5090800;28;20071;-73
2022/08/21 07:05:12;;;;;;;13.30;5.82;;;;;;;21.31;57.14;101569.19;5091224;28;20071;-73
2022/08/21 07:07:44;;;;;;;12.52;5.75;;;;;;;21.51;56.76;101565.22;5091168;28;20555;-73
2022/08/21 07:10:10;;;;;;;8.57;4.80;;;;;;;21.70;56.77;101566.00;5090860;28;20131;-73
2022/08/21 07:12:48;;;;;;;8.05;5.20;;;;;;;21.85;56.08;101564.38;5090565;28;20051;-73
2022/08/21 07:15:16;;;;;;;8.32;5.40;;;;;;;21.93;55.72;101552.59;5089757;28;20477;-73
2022/08/21 07:17:43;;;;;;;9.65;5.13;;;;;;;21.99;55.66;101552.78;5089579;28;20405;-73
2022/08/21 07:20:10;;;;;;;8.02;5.07;;;;;;;22.11;55.55;101558.84;5089465;28;20040;-73
2022/08/21 07:22:40;;;;;;;10.80;5.65;;;;;;;22.24;55.71;101558.38;5089508;28;20460;-71
2022/08/21 07:25:07;;;;;;;9.38;5.20;;;;;;;22.35;55.41;101560.81;5090707;28;20382;-70
2022/08/21 07:27:33;;;;;;;10.68;5.30;;;;;;;22.47;55.41;101559.47;5090493;28;20521;-70
2022/08/21 07:30:00;;;;;;;12.48;6.22;;;;;;;22.61;54.92;101561.53;5090743;28;20048;-70
2022/08/21 07:32:27;;;;;;;10.52;4.93;;;;;;;22.74;55.05;101555.53;5088612;28;20055;-71
2022/08/21 07:34:55;;;;;;;12.13;5.18;;;;;;;22.87;54.92;101552.31;5090685;28;20414;-71
2022/08/21 07:37:22;;;;;;;12.60;5.20;;;;;;;22.99;54.35;101550.94;5090713;28;20316;-72
2022/08/21 07:39:48;;;;;;;12.85;5.88;;;;;;;23.11;54.41;101561.41;5090715;28;20066;-70
2022/08/21 07:42:16;;;;;;;8.35;4.85;;;;;;;23.24;54.18;101551.78;5090625;28;20036;-69
2022/08/21 07:44:43;;;;;;;11.35;5.88;;;;;;;23.38;53.96;101546.44;5091151;28;20036;-69
2022/08/21 07:47:10;;;;;;;11.25;5.65;;;;;;;23.51;53.88;101558.72;5093565;28;20039;-70
2022/08/21 07:49:37;;;;;;;14.68;5.82;;;;;;;23.60;53.50;101558.56;5094430;28;20043;-69
2022/08/21 07:52:04;;;;;;;10.85;4.97;;;;;;;23.69;53.50;101556.63;5094250;28;20044;-71
2022/08/21 07:54:30;;;;;;;8.18;4.97;;;;;;;23.74;53.28;101554.22;5095067;28;20044;-69
2022/08/21 07:57:00;;;;;;;11.50;5.18;;;;;;;23.82;53.30;101550.63;5094632;28;20058;-69
2022/08/21 07:59:28;;;;;;;10.88;5.30;;;;;;;23.87;53.10;101540.81;5094464;28;20509;-69
2022/08/21 08:01:54;;;;;;;13.32;6.05;;;;;;;23.93;52.95;101551.06;5094312;28;20040;-69
2022/08/21 08:04:25;;;;;;;9.40;5.13;;;;;;;23.97;52.97;101552.44;5094707;28;20055;-69
2022/08/21 08:06:52;;;;;;;9.52;4.93;;;;;;;23.99;52.72;101555.84;5094339;28;20497;-70
2022/08/21 08:09:19;;;;;;;13.75;5.65;;;;;;;24.01;52.62;101553.78;5094039;28;20047;-70
2022/08/21 08:11:46;;;;;;;11.57;5.10;;;;;;;24.08;52.39;101552.03;5093020;28;20436;-68
2022/08/21 08:14:17;;;;;;;9.20;4.75;;;;;;;24.18;52.43;101549.06;5093131;28;20040;-70
2022/08/21 08:16:44;;;;;;;13.60;5.10;;;;;;;24.28;52.61;101552.44;5090988;28;20520;-72
2022/08/21 08:19:10;;;;;;;6.90;4.72;;;;;;;24.44;52.41;101551.47;5093582;28;20051;-70
2022/08/21 08:21:38;;;;;;;12.57;5.68;;;;;;;24.60;51.98;101545.91;5093341;28;20040;-70
2022/08/21 08:24:04;;;;;;;10.90;4.30;;;;;;;24.74;52.09;101543.38;5094011;27;20512;-71
2022/08/21 08:26:45;;;;;;;11.15;4.75;;;;;;;24.90;51.79;101555.09;5093042;28;20051;-71
2022/08/21 08:29:19;;;;;;;13.57;4.78;;;;;;;25.00;51.58;101552.09;5092925;28;20151;-71
2022/08/21 08:31:45;;;;;;;7.90;4.20;;;;;;;25.13;51.38;101548.72;5091915;28;20044;-70
2022/08/21 08:34:12;;;;;;;8.88;4.90;;;;;;;25.25;51.12;101542.56;5092474;27;20409;-70
2022/08/21 08:36:51;;;;;;;7.85;4.25;;;;;;;25.40;50.77;101550.00;5092650;28;20078;-70
2022/08/21 08:39:17;;;;;;;7.40;4.18;;;;;;;25.52;50.71;101540.25;5092624;28;20409;-70
2022/08/21 08:42:03;;;;;;;9.27;4.72;;;;;;;25.60;49.81;101530.00;5093207;28;20484;-70
2022/08/21 08:44:57;;;;;;;10.23;4.38;;;;;;;25.65;50.22;101532.16;5093639;27;20082;-70
2022/08/21 08:47:26;;;;;;;10.70;4.22;;;;;;;25.71;49.95;101528.69;5092178;28;20486;-71
2022/08/21 08:49:59;;;;;;;7.65;4.30;;;;;;;25.76;49.79;101523.47;5092181;28;20063;-70
2022/08/21 08:52:36;;;;;;;8.50;4.13;;;;;;;25.80;49.29;101524.78;5092608;28;20078;-70
2022/08/21 08:55:14;;;;;;;10.90;3.90;;;;;;;25.82;49.43;101514.44;5092976;28;20071;-70
2022/08/21 08:57:45;;;;;;;17.88;3.45;;;;;;;25.93;49.46;101516.69;5092900;28;20044;-70
2022/08/21 09:00:19;;;;;;;8.73;3.60;;;;;;;26.15;48.98;101514.84;5091854;28;20417;-70
2022/08/21 09:02:46;;;;;;;7.30;3.13;;;;;;;26.30;49.06;101509.28;5092853;28;20051;-71
2022/08/21 09:05:26;;;;;;;12.07;3.13;;;;;;;26.45;48.74;101504.59;5093071;28;20039;-70
2022/08/21 09:08:18;;;;;;;8.57;3.45;;;;;;;26.68;48.57;101509.03;5097539;28;20072;-71
2022/08/21 09:11:00;;;;;;;10.45;4.00;;;;;;;26.83;47.84;101507.94;5091450;28;20501;-72
2022/08/21 09:13:55;;;;;;;13.68;3.40;;;;;;;26.78;47.75;101510.44;5093103;28;20040;-71
2022/08/21 09:17:14;;;;;;;8.93;3.35;;;;;;;26.63;47.50;101512.41;5091388;28;20130;-71
2022/08/21 09:20:48;;;;;;;8.43;2.85;;;;;;;26.63;47.51;101506.03;5022372;28;20058;-71
2022/08/21 09:23:34;;;;;;;9.60;1.90;;;;;;;26.65;46.97;101503.94;4998312;28;20062;-71
2022/08/21 09:26:13;;;;;;;7.50;2.25;;;;;;;26.64;46.64;101502.22;5086575;28;20413;-71
2022/08/21 09:28:42;;;;;;;8.40;2.10;;;;;;;26.69;46.73;101502.47;5092699;28;20056;-71
2022/08/21 09:31:23;;;;;;;7.68;2.25;;;;;;;26.76;46.44;101500.66;5108083;28;20044;-71
2022/08/21 09:33:59;;;;;;;5.93;2.03;;;;;;;26.80;46.08;101504.72;5092214;28;20043;-71
2022/08/21 09:36:33;;;;;;;5.82;2.10;;;;;;;26.84;46.15;101508.78;5092162;28;20393;-71
2022/08/21 09:39:00;;;;;;;7.30;2.10;;;;;;;26.86;45.68;101502.03;5092664;28;20054;-70
2022/08/21 09:41:30;;;;;;;8.60;2.22;;;;;;;26.88;45.61;101499.91;5091971;28;20036;-71
2022/08/21 09:43:58;;;;;;;7.75;1.88;;;;;;;26.95;45.60;101508.25;5092642;28;20048;-71
2022/08/21 09:46:27;;;;;;;6.53;1.85;;;;;;;27.07;45.39;101505.81;5092205;28;20056;-71
2022/08/21 09:48:58;;;;;;;7.93;2.15;;;;;;;27.20;45.35;101506.75;5090974;28;20052;-71
2022/08/21 09:51:36;;;;;;;7.80;2.55;;;;;;;27.41;45.23;101504.97;5091797;28;20123;-70
2022/08/21 09:54:07;;;;;;;7.38;1.60;;;;;;;27.60;45.05;101503.41;5090845;28;20055;-71
2022/08/21 09:59:32;;;;;;;7.60;2.33;;;;;;;27.87;44.31;101498.88;5092060;28;20047;-72
2022/08/21 10:02:31;;;;;;;6.68;2.30;;;;;;;27.92;43.89;101508.22;5091405;28;20058;-71
2022/08/21 10:04:59;;;;;;;6.05;2.13;;;;;;;28.01;43.77;101509.75;5081003;28;20040;-72
2022/08/21 10:07:29;;;;;;;4.22;1.67;;;;;;;28.08;43.52;101509.78;5091945;28;20028;-71
2022/08/21 10:10:14;;;;;;;5.03;1.50;;;;;;;28.10;42.77;101505.75;5091449;28;20413;-71
2022/08/21 10:13:17;;;;;;;5.40;1.67;;;;;;;28.13;42.62;101491.50;5090253;28;20051;-72
2022/08/21 10:15:59;;;;;;;5.45;1.65;;;;;;;28.16;42.29;101493.84;5091278;28;20306;-71
2022/08/21 10:18:35;;;;;;;15.60;2.15;;;;;;;28.15;42.31;101489.41;5091835;28;20036;-70
2022/08/21 10:21:21;;;;;;;6.97;1.42;;;;;;;28.15;42.20;101494.06;5091463;28;20379;-71
2022/08/21 10:24:23;;;;;;;5.60;2.00;;;;;;;28.18;42.25;101496.41;5091664;28;20252;-71
2022/08/21 10:27:03;;;;;;;6.40;1.92;;;;;;;28.30;42.09;101499.47;5086502;28;20054;-71
2022/08/21 10:29:39;;;;;;;7.97;2.75;;;;;;;28.37;41.87;101494.81;5091416;28;20047;-72
2022/08/21 10:32:23;;;;;;;5.05;1.77;;;;;;;28.42;41.91;101493.13;5091017;28;20119;-74
2022/08/21 10:35:13;;;;;;;5.07;2.60;;;;;;;28.39;41.39;101500.97;5090822;27;20035;-70
2022/08/21 10:38:09;;;;;;;4.40;1.88;;;;;;;28.35;41.38;101497.78;5091327;28;20050;-70
2022/08/21 10:41:00;;;;;;;5.25;1.90;;;;;;;28.43;41.39;101494.81;5091288;28;20044;-71
2022/08/21 10:43:55;;;;;;;6.68;1.98;;;;;;;28.56;40.64;101495.88;5090776;28;20043;-70
2022/08/21 10:46:36;;;;;;;3.53;1.50;;;;;;;28.74;40.55;101490.56;5091264;28;20040;-69
2022/08/21 10:49:20;;;;;;;5.63;1.67;;;;;;;28.85;40.40;101491.88;5091063;28;20032;-69
2022/08/21 10:51:55;;;;;;;7.70;1.65;;;;;;;28.98;40.23;101483.56;5090821;28;20032;-70
2022/08/21 10:54:46;;;;;;;4.95;1.70;;;;;;;29.08;39.96;101490.41;5090692;27;20047;-70
2022/08/21 10:57:24;;;;;;;7.53;2.00;;;;;;;29.23;40.12;101492.06;5091006;28;20032;-70
2022/08/21 11:00:11;;;;;;;4.43;1.50;;;;;;;29.33;39.73;101485.00;5091073;28;20432;-72
2022/08/21 11:02:46;;;;;;;5.40;1.40;;;;;;;29.36;39.86;101494.81;5090445;28;20032;-71
2022/08/21 11:05:19;;;;;;;4.93;1.50;;;;;;;29.39;39.49;101489.69;5090558;28;20355;-71
2022/08/21 11:07:51;;;;;;;4.90;1.80;;;;;;;29.36;38.94;101490.13;5091033;28;20047;-71
2022/08/21 11:10:46;;;;;;;4.88;1.70;;;;;;;29.27;38.95;101496.09;5090944;28;20051;-72
2022/08/21 11:13:48;;;;;;;4.30;1.60;;;;;;;29.13;39.02;101491.66;5090825;28;20047;-71
2022/08/21 11:16:45;;;;;;;4.63;1.77;;;;;;;29.04;38.62;101491.03;5070537;28;20506;-71
2022/08/21 11:19:34;;;;;;;6.22;2.15;;;;;;;28.99;38.62;101483.38;5070724;28;20044;-71
2022/08/21 11:22:31;;;;;;;4.30;1.50;;;;;;;29.01;38.50;101484.03;5074613;28;20469;-70
2022/08/21 11:25:15;;;;;;;9.85;2.05;;;;;;;29.09;38.41;101478.25;5087337;28;20040;-70
2022/08/21 11:27:52;;;;;;;4.32;1.73;;;;;;;29.15;38.50;101481.22;5095011;28;20054;-70
2022/08/21 11:30:19;;;;;;;5.47;1.80;;;;;;;29.23;38.25;101478.25;5094804;28;20048;-69
2022/08/21 11:32:50;;;;;;;6.05;1.88;;;;;;;29.23;37.78;101473.56;5094431;28;20040;-70
2022/08/21 11:35:32;;;;;;;4.05;1.50;;;;;;;29.24;37.68;101480.78;5094340;27;20051;-72
2022/08/21 11:38:37;;;;;;;6.00;1.50;;;;;;;29.22;37.51;101479.31;5094824;28;20055;-70
2022/08/21 11:41:18;;;;;;;3.30;1.50;;;;;;;29.29;37.79;101478.22;5075822;28;20383;-71
2022/08/21 11:44:02;;;;;;;3.25;1.60;;;;;;;29.33;37.57;101479.47;5090199;28;20509;-71
2022/08/21 11:46:33;;;;;;;5.10;1.70;;;;;;;29.37;37.67;101474.38;5094606;28;20051;-70
2022/08/21 11:49:15;;;;;;;7.13;2.35;;;;;;;29.35;37.49;101470.97;5094352;28;20097;-70